createdAt,value
2023-01-10T00:02:36.510Z,12.15
2023-01-10T00:07:39.282Z,12.02
2023-01-10T00:12:59.518Z,13.23
2023-01-10T00:18:03.918Z,12.95
2023-01-10T00:23:07.024Z,8.02
2023-01-10T00:28:19.668Z,9.10
2023-01-10T00:33:24.947Z,10.02
2023-01-10T00:38:27.721Z,7.57
2023-01-10T00:43:48.005Z,5.75
2023-01-10T00:48:52.735Z,10.40
2023-01-10T00:53:55.517Z,5.28
2023-01-10T00:58:58.261Z,6.13
2023-01-10T01:04:02.353Z,7.07
2023-01-10T01:09:05.152Z,7.03
2023-01-10T01:14:07.883Z,4.95
2023-01-10T01:19:12.474Z,3.33
2023-01-10T01:24:15.257Z,4.43
2023-01-10T01:29:18.201Z,6.40
2023-01-10T01:34:22.568Z,3.47
2023-01-10T01:39:25.609Z,7.72
2023-01-10T01:44:32.727Z,16.05
2023-01-10T01:49:41.289Z,6.95
2023-01-10T01:54:44.063Z,8.20
2023-01-10T01:59:49.153Z,8.68
2023-01-10T02:04:55.513Z,16.52
2023-01-10T02:10:02.309Z,7.32
2023-01-10T02:15:06.052Z,7.10
2023-01-10T02:20:13.731Z,11.70
2023-01-10T02:25:47.793Z,15.88
2023-01-10T02:31:11.443Z,19.48
2023-01-10T02:36:37.673Z,31.25
2023-01-10T02:41:46.418Z,25.75
2023-01-10T02:46:50.350Z,23.23
2023-01-10T02:51:54.773Z,27.92
2023-01-10T02:57:15.217Z,30.23
2023-01-10T03:02:27.784Z,24.35
2023-01-10T03:07:38.424Z,21.90
2023-01-10T03:12:46.214Z,28.20
2023-01-10T03:17:53.285Z,28.40
2023-01-10T03:22:57.539Z,23.10
2023-01-10T03:28:06.945Z,25.77
2023-01-10T03:33:11.502Z,22.70
2023-01-10T03:38:23.083Z,23.83
2023-01-10T03:43:51.092Z,25.85
2023-01-10T03:48:55.045Z,19.55
2023-01-10T03:54:00.898Z,17.48
2023-01-10T03:59:03.628Z,19.25
2023-01-10T04:04:06.675Z,22.80
2023-01-10T04:09:11.103Z,12.75
2023-01-10T04:14:13.832Z,9.73
2023-01-10T04:19:16.627Z,23.45
2023-01-10T04:24:20.765Z,17.77
2023-01-10T04:29:23.539Z,15.73
2023-01-10T04:34:26.302Z,15.82
2023-01-10T04:39:30.464Z,16.55
2023-01-10T04:44:33.232Z,25.35
2023-01-10T04:49:36.041Z,18.30
2023-01-10T04:54:40.138Z,20.23
2023-01-10T04:59:42.954Z,24.55
2023-01-10T05:04:45.803Z,25.40
2023-01-10T05:09:49.924Z,18.70
2023-01-10T05:14:52.694Z,22.90
2023-01-10T05:19:55.461Z,24.90
2023-01-10T05:24:59.558Z,21.83
2023-01-10T05:30:02.332Z,24.42
2023-01-10T05:35:05.756Z,19.33
2023-01-10T05:40:11.389Z,26.75
2023-01-10T05:45:14.142Z,13.05
2023-01-10T05:50:18.975Z,20.88
2023-01-10T05:55:23.219Z,34.80
2023-01-10T06:00:26.959Z,23.67
2023-01-10T06:05:29.728Z,15.90
2023-01-10T06:10:33.913Z,14.50
2023-01-10T06:15:37.333Z,20.17
2023-01-10T06:20:40.212Z,15.02
2023-01-10T06:25:44.363Z,21.27
2023-01-10T06:30:47.188Z,20.80
2023-01-10T06:35:50.067Z,23.58
2023-01-10T06:40:54.233Z,23.90
2023-01-10T06:45:57.079Z,20.13
2023-01-10T06:50:59.947Z,18.35
2023-01-10T06:56:05.918Z,23.10
2023-01-10T07:01:14.735Z,25.13
2023-01-10T07:06:17.717Z,27.92
2023-01-10T07:11:21.980Z,31.33
2023-01-10T07:16:24.864Z,23.58
2023-01-10T07:21:27.926Z,32.03
2023-01-10T07:26:32.089Z,27.63
2023-01-10T07:31:34.973Z,37.33
2023-01-10T07:36:39.466Z,30.60
2023-01-10T07:41:43.713Z,24.02
2023-01-10T07:46:51.467Z,26.33
2023-01-10T07:51:54.769Z,28.33
2023-01-10T07:56:58.893Z,26.88
2023-01-10T08:02:01.745Z,38.80
2023-01-10T08:07:04.629Z,30.67
2023-01-10T08:12:08.931Z,34.42
2023-01-10T08:17:11.695Z,29.65
2023-01-10T08:22:14.500Z,33.95
2023-01-10T08:27:18.780Z,22.05
2023-01-10T08:32:22.439Z,26.88
2023-01-10T08:37:25.292Z,25.10
2023-01-10T08:42:29.535Z,34.47
2023-01-10T08:47:32.304Z,31.05
2023-01-10T08:52:35.162Z,31.30
2023-01-10T08:57:39.394Z,29.25
2023-01-10T09:02:42.352Z,28.67
2023-01-10T09:07:46.352Z,28.23
2023-01-10T09:12:56.162Z,36.65
2023-01-10T09:18:01.382Z,34.47
2023-01-10T09:23:08.459Z,27.45
2023-01-10T09:28:12.724Z,18.45
2023-01-10T09:33:15.847Z,21.40
2023-01-10T09:38:22.264Z,34.05
2023-01-10T09:43:36.282Z,33.03
2023-01-10T09:48:48.950Z,27.52
2023-01-10T09:59:04.800Z,27.10
2023-01-10T10:04:20.787Z,31.45
2023-01-10T10:09:26.508Z,30.60
2023-01-10T10:14:52.464Z,21.08
2023-01-10T10:20:11.007Z,34.40
2023-01-10T10:25:34.893Z,30.83
2023-01-10T10:30:53.053Z,33.78
2023-01-10T10:36:01.092Z,25.75
2023-01-10T10:41:04.313Z,26.90
2023-01-10T10:46:10.707Z,33.47
2023-01-10T10:51:17.998Z,28.58
2023-01-10T10:56:24.063Z,26.02
2023-01-10T11:01:28.702Z,28.27
2023-01-10T11:06:34.191Z,26.13
2023-01-10T11:11:41.823Z,19.50
2023-01-10T11:16:45.960Z,21.38
2023-01-10T11:21:53.358Z,30.92
2023-01-10T11:26:57.724Z,26.38
2023-01-10T11:32:10.542Z,19.65
2023-01-10T11:37:21.560Z,30.17
2023-01-10T11:42:30.689Z,41.85
2023-01-10T11:47:41.697Z,30.88
2023-01-10T11:52:49.628Z,30.95
2023-01-10T11:57:59.881Z,26.80
2023-01-10T12:03:14.921Z,31.30
2023-01-10T12:08:26.523Z,20.75
2023-01-10T12:13:30.640Z,23.85
2023-01-10T12:18:34.810Z,20.05
2023-01-10T12:23:41.476Z,32.42
2023-01-10T12:28:52.095Z,16.27
2023-01-10T12:34:02.441Z,36.58
2023-01-10T12:39:16.418Z,20.38
2023-01-10T12:44:27.779Z,26.48
2023-01-10T12:49:36.873Z,19.50
2023-01-10T12:54:39.738Z,17.20
2023-01-10T12:59:46.247Z,20.23
2023-01-10T13:04:54.304Z,18.20
2023-01-10T13:09:57.427Z,19.27
2023-01-10T13:15:06.190Z,24.88
2023-01-10T13:20:37.037Z,16.20
2023-01-10T13:25:39.970Z,17.40
2023-01-10T13:30:42.922Z,21.70
2023-01-10T13:35:48.950Z,18.70
2023-01-10T13:41:00.977Z,24.45
2023-01-10T13:46:35.000Z,13.25
2023-01-10T13:51:40.205Z,20.23
2023-01-10T13:56:44.603Z,19.95
2023-01-10T14:02:10.282Z,25.48
2023-01-10T14:07:22.923Z,23.13
2023-01-10T14:12:30.119Z,20.52
2023-01-10T14:17:34.869Z,13.15
2023-01-10T14:22:40.427Z,17.58
2023-01-10T14:27:46.413Z,23.27
2023-01-10T14:32:52.149Z,16.50
2023-01-10T14:37:58.505Z,17.30
2023-01-10T14:43:05.657Z,13.95
2023-01-10T14:48:27.163Z,22.73
2023-01-10T14:53:31.868Z,18.98
2023-01-10T14:58:34.595Z,20.77
2023-01-10T15:03:38.578Z,20.27
2023-01-10T15:08:42.927Z,21.00
2023-01-10T15:13:51.444Z,15.68
2023-01-10T15:18:56.453Z,15.23
2023-01-10T15:24:00.626Z,21.05
2023-01-10T15:29:10.265Z,9.63
2023-01-10T15:34:19.462Z,19.83
2023-01-10T15:39:26.187Z,16.25
2023-01-10T15:44:40.861Z,17.00
2023-01-10T15:49:53.977Z,10.77
2023-01-10T15:54:58.107Z,8.90
2023-01-10T16:00:01.170Z,13.00
2023-01-10T16:05:11.333Z,13.00
2023-01-10T16:10:21.389Z,18.45
2023-01-10T16:15:26.275Z,14.07
2023-01-10T16:20:31.635Z,16.33
2023-01-10T16:25:39.621Z,10.40
2023-01-10T16:30:46.499Z,19.63
2023-01-10T16:35:50.811Z,15.38
2023-01-10T16:40:58.212Z,12.52
2023-01-10T16:46:01.084Z,15.13
2023-01-10T16:51:16.849Z,10.52
2023-01-10T16:56:24.926Z,9.85
2023-01-10T17:01:31.752Z,12.32
2023-01-10T17:06:35.577Z,8.90
2023-01-10T17:11:43.080Z,13.70
2023-01-10T17:16:46.268Z,15.35
2023-01-10T17:21:49.061Z,11.05
2023-01-10T17:26:53.386Z,11.23
2023-01-10T17:31:56.273Z,14.90
2023-01-10T17:36:59.086Z,8.60
2023-01-10T17:42:03.342Z,15.55
2023-01-10T17:47:06.199Z,14.30
2023-01-10T17:52:09.100Z,10.73
2023-01-10T17:57:14.791Z,19.55
2023-01-10T18:02:19.286Z,12.57
2023-01-10T18:07:22.167Z,19.60
2023-01-10T18:12:26.391Z,17.65
2023-01-10T18:17:29.372Z,10.55
2023-01-10T18:22:49.822Z,14.73
2023-01-10T18:27:55.306Z,15.82
2023-01-10T18:32:58.142Z,12.45
2023-01-10T18:38:01.047Z,10.15
2023-01-10T18:43:05.290Z,13.80
2023-01-10T18:48:08.086Z,9.98
2023-01-10T18:53:10.963Z,18.52
2023-01-10T18:58:15.166Z,11.48
2023-01-10T19:03:18.136Z,16.08
2023-01-10T19:08:20.911Z,18.13
2023-01-10T19:13:25.150Z,16.13
2023-01-10T19:18:28.316Z,15.15
2023-01-10T19:23:31.390Z,6.28
2023-01-10T19:28:35.842Z,13.50
2023-01-10T19:33:39.102Z,13.63
2023-01-10T19:38:41.965Z,14.25
2023-01-10T19:43:46.109Z,21.80
2023-01-10T19:48:48.980Z,18.92
2023-01-10T19:53:52.268Z,15.32
2023-01-10T19:58:56.663Z,15.75
2023-01-10T20:04:02.154Z,8.93
2023-01-10T20:09:06.059Z,15.75
2023-01-10T20:14:14.466Z,8.45
2023-01-10T20:19:17.414Z,10.77
2023-01-10T20:24:21.762Z,14.90
2023-01-10T20:29:26.117Z,9.82
2023-01-10T20:34:29.668Z,10.30
2023-01-10T20:39:32.974Z,12.07
2023-01-10T20:44:37.270Z,11.85
2023-01-10T20:49:40.042Z,8.68
2023-01-10T20:54:42.951Z,10.95
2023-01-10T20:59:47.146Z,9.48
2023-01-10T21:04:50.731Z,9.02
2023-01-10T21:09:53.625Z,11.27
2023-01-10T21:14:57.924Z,9.05
2023-01-10T21:20:00.753Z,9.48
2023-01-10T21:25:03.973Z,10.38
2023-01-10T21:30:10.405Z,4.47
2023-01-10T21:35:13.175Z,5.47
2023-01-10T21:40:16.330Z,2.45
2023-01-10T21:45:21.094Z,4.20
2023-01-10T21:50:23.951Z,3.70
2023-01-10T21:55:27.428Z,3.88
2023-01-10T22:00:31.993Z,1.45
2023-01-10T22:05:34.920Z,3.72
2023-01-10T22:10:37.787Z,2.08
2023-01-10T22:15:43.343Z,1.25
2023-01-10T22:20:46.269Z,2.85
2023-01-10T22:25:59.008Z,3.58
2023-01-10T22:36:06.573Z,3.92
2023-01-10T22:41:10.823Z,2.60
2023-01-10T22:46:16.451Z,1.13
2023-01-10T22:51:21.101Z,2.63
2023-01-10T22:56:25.372Z,0.60
2023-01-10T23:01:29.612Z,4.10
2023-01-10T23:06:32.576Z,2.25
2023-01-10T23:11:35.404Z,1.13
2023-01-10T23:16:39.656Z,1.38
2023-01-10T23:21:42.515Z,0.93
2023-01-10T23:26:45.275Z,1.02
2023-01-10T23:31:49.827Z,0.70
2023-01-10T23:36:52.635Z,0.73
2023-01-10T23:41:55.436Z,0.98
2023-01-10T23:46:59.583Z,0.35
2023-01-10T23:52:02.461Z,3.15
2023-01-10T23:57:05.228Z,1.75
